Time;durP1;ratioP1;P1;durP2;ratioP2;P2;SDS_P1;SDS_P2;PMS_P1;PMS_P2;Temp;Humidity;BMP_temperature;BMP_pressure;BME280_temperature;BME280_humidity;BME280_pressure;Samples;Min_cycle;Max_cycle;Signal;HPM_P1;HPM_P2
2023/08/20 00:00:39;;;;;;;10.50;8.20;;;;;;;;;;5033038;28;20031;-79
2023/08/20 00:03:10;;;;;;;9.80;7.35;;;;;;;;;;5036773;28;20102;-79
2023/08/20 00:05:36;;;;;;;9.10;7.82;;;;;;;;;;5031897;28;20455;-80
2023/08/20 00:08:02;;;;;;;9.23;8.07;;;;;;;;;;5035633;28;20057;-80
2023/08/20 00:10:27;;;;;;;9.60;8.10;;;;;;;;;;5034351;28;20090;-80
2023/08/20 00:12:52;;;;;;;9.60;8.30;;;;;;;;;;5036871;28;20029;-80
2023/08/20 00:15:19;;;;;;;8.43;7.50;;;;;;;;;;5036789;28;20518;-80
2023/08/20 00:17:45;;;;;;;8.73;7.90;;;;;;;;;;5035426;28;20280;-80
2023/08/20 00:20:12;;;;;;;9.13;8.23;;;;;;;;;;5035797;28;20029;-80
2023/08/20 00:22:38;;;;;;;10.88;8.52;;;;;;;;;;5037066;28;20492;-80
2023/08/20 00:25:05;;;;;;;12.02;9.48;;;;;;;;;;5036244;28;20040;-80
2023/08/20 00:27:30;;;;;;;8.13;7.32;;;;;;;;;;5027849;28;20033;-80
2023/08/20 00:29:55;;;;;;;8.77;7.88;;;;;;;;;;5036218;28;20373;-79
2023/08/20 00:32:20;;;;;;;9.13;8.07;;;;;;;;;;5034988;28;20045;-80
2023/08/20 00:34:46;;;;;;;9.98;8.05;;;;;;;;;;5019047;28;20159;-80
2023/08/20 00:37:12;;;;;;;9.25;8.35;;;;;;;;;;5028471;28;20018;-80
2023/08/20 00:39:37;;;;;;;10.77;8.40;;;;;;;;;;5034595;28;20061;-80
2023/08/20 00:42:04;;;;;;;8.50;7.60;;;;;;;;;;5036056;28;20029;-80
2023/08/20 00:44:29;;;;;;;9.23;8.32;;;;;;;;;;5035763;28;20034;-80
2023/08/20 00:46:55;;;;;;;10.13;8.90;;;;;;;;;;5018583;28;20041;-80
2023/08/20 00:49:20;;;;;;;9.93;8.85;;;;;;;;;;5034385;28;20108;-79
2023/08/20 00:51:45;;;;;;;8.67;7.53;;;;;;;;;;5019060;28;20061;-79
2023/08/20 00:54:10;;;;;;;9.00;8.07;;;;;;;;;;5034822;28;20299;-80
2023/08/20 00:56:36;;;;;;;9.00;7.65;;;;;;;;;;5036041;28;20315;-79
2023/08/20 00:59:01;;;;;;;10.32;8.23;;;;;;;;;;5034453;28;20033;-80
2023/08/20 01:01:27;;;;;;;10.80;8.55;;;;;;;;;;5034341;28;20555;-80
2023/08/20 01:03:52;;;;;;;9.23;8.27;;;;;;;;;;5034858;28;20036;-78
2023/08/20 01:06:40;;;;;;;9.38;8.48;;;;;;;;;;5035392;28;20519;-80
2023/08/20 01:09:13;;;;;;;9.73;8.73;;;;;;;;;;5030182;28;20232;-80
2023/08/20 01:11:43;;;;;;;12.43;8.85;;;;;;;;;;5034900;28;20037;-79
2023/08/20 01:14:15;;;;;;;10.15;8.85;;;;;;;;;;5032749;28;20383;-80
2023/08/20 01:16:41;;;;;;;9.65;8.30;;;;;;;;;;5032193;28;20036;-80
2023/08/20 01:19:08;;;;;;;9.77;8.77;;;;;;;;;;5033785;28;20029;-79
2023/08/20 01:21:38;;;;;;;9.50;8.60;;;;;;;;;;5018088;28;20175;-80
2023/08/20 01:24:12;;;;;;;9.45;8.48;;;;;;;;;;5032047;28;20025;-79
2023/08/20 01:26:46;;;;;;;9.55;8.55;;;;;;;;;;5035187;28;20026;-80
2023/08/20 01:29:11;;;;;;;9.43;8.23;;;;;;;;;;5033774;28;20037;-80
2023/08/20 01:31:37;;;;;;;9.73;8.73;;;;;;;;;;5034338;28;20476;-80
2023/08/20 01:34:03;;;;;;;12.23;9.02;;;;;;;;;;5017657;28;20041;-78
2023/08/20 01:36:28;;;;;;;9.30;8.38;;;;;;;;;;5035394;28;20034;-79
2023/08/20 01:38:54;;;;;;;11.70;9.17;;;;;;;;;;5026141;28;20124;-80
2023/08/20 01:41:19;;;;;;;10.88;8.85;;;;;;;;;;5019829;28;20319;-79
2023/08/20 01:43:44;;;;;;;13.10;8.65;;;;;;;;;;5034339;28;20112;-80
2023/08/20 01:46:10;;;;;;;9.73;8.60;;;;;;;;;;5034328;28;20029;-80
2023/08/20 01:48:35;;;;;;;10.23;8.68;;;;;;;;;;5034164;28;20037;-79
2023/08/20 01:51:00;;;;;;;11.93;8.30;;;;;;;;;;5017160;28;20105;-80
2023/08/20 01:53:25;;;;;;;12.43;8.73;;;;;;;;;;5035289;28;20025;-80
2023/08/20 01:55:51;;;;;;;10.90;8.55;;;;;;;;;;5033744;28;20758;-80
2023/08/20 01:58:16;;;;;;;9.80;8.15;;;;;;;;;;5025628;28;20025;-80
2023/08/20 02:00:41;;;;;;;13.68;8.30;;;;;;;;;;5032987;28;20084;-79
2023/08/20 02:03:06;;;;;;;11.67;8.57;;;;;;;;;;5034626;28;20033;-80
2023/08/20 02:05:32;;;;;;;13.60;10.05;;;;;;;;;;5025606;28;20268;-80
2023/08/20 02:07:57;;;;;;;11.67;8.80;;;;;;;;;;5017189;28;20060;-80
2023/08/20 02:10:22;;;;;;;11.80;8.75;;;;;;;;;;5026656;28;20694;-80
2023/08/20 02:12:47;;;;;;;9.73;8.37;;;;;;;;;;5012321;28;20037;-79
2023/08/20 02:15:12;;;;;;;11.00;7.90;;;;;;;;;;5017152;28;20284;-79
2023/08/20 02:17:38;;;;;;;9.73;8.73;;;;;;;;;;5035136;28;20771;-80
2023/08/20 02:20:04;;;;;;;9.55;8.27;;;;;;;;;;5034392;28;20029;-79
2023/08/20 02:22:29;;;;;;;12.25;9.00;;;;;;;;;;5034903;28;20029;-79
2023/08/20 02:24:55;;;;;;;12.35;8.95;;;;;;;;;;5034753;28;20041;-80
2023/08/20 02:27:20;;;;;;;18.75;8.95;;;;;;;;;;5034572;28;20109;-80
2023/08/20 02:29:45;;;;;;;8.83;7.93;;;;;;;;;;5034069;28;20025;-80
2023/08/20 02:32:14;;;;;;;10.57;9.43;;;;;;;;;;5032759;28;20267;-80
2023/08/20 02:34:39;;;;;;;11.02;9.75;;;;;;;;;;5034960;28;20510;-80
2023/08/20 02:37:04;;;;;;;10.15;8.32;;;;;;;;;;5034529;28;20484;-80
2023/08/20 02:39:31;;;;;;;11.57;9.60;;;;;;;;;;5034043;28;20471;-80
2023/08/20 02:41:56;;;;;;;10.32;8.65;;;;;;;;;;5018081;28;20287;-80
2023/08/20 02:44:21;;;;;;;12.25;9.60;;;;;;;;;;5039581;28;20483;-80
2023/08/20 02:46:47;;;;;;;9.90;8.13;;;;;;;;;;5041358;28;20030;-80
2023/08/20 02:49:12;;;;;;;9.80;8.75;;;;;;;;;;5040202;28;20060;-79
2023/08/20 02:51:37;;;;;;;12.57;9.00;;;;;;;;;;5039707;28;20389;-80
2023/08/20 02:54:02;;;;;;;10.82;8.80;;;;;;;;;;5040438;28;20052;-80
2023/08/20 02:56:28;;;;;;;11.77;10.57;;;;;;;;;;5036903;28;20041;-79
2023/08/20 02:58:53;;;;;;;13.05;9.07;;;;;;;;;;5040518;28;20140;-79
2023/08/20 03:01:23;;;;;;;16.17;9.73;;;;;;;;;;5039719;28;20755;-79
2023/08/20 03:03:48;;;;;;;9.85;8.73;;;;;;;;;;5040308;28;20283;-79
2023/08/20 03:06:13;;;;;;;10.23;8.55;;;;;;;;;;5024098;28;20385;-80
2023/08/20 03:08:39;;;;;;;14.70;9.82;;;;;;;;;;5031072;28;20029;-80
2023/08/20 03:11:04;;;;;;;9.73;8.73;;;;;;;;;;5039184;28;20033;-79
2023/08/20 03:13:29;;;;;;;10.30;9.00;;;;;;;;;;5040463;28;20029;-80
2023/08/20 03:15:55;;;;;;;12.13;9.85;;;;;;;;;;5041379;28;20034;-80
2023/08/20 03:18:20;;;;;;;13.87;11.47;;;;;;;;;;5039700;28;20491;-80
2023/08/20 03:20:45;;;;;;;11.65;10.27;;;;;;;;;;5022450;28;20280;-79
2023/08/20 03:23:10;;;;;;;11.02;9.57;;;;;;;;;;5037823;28;20486;-78
2023/08/20 03:25:36;;;;;;;22.60;10.48;;;;;;;;;;5037700;28;20110;-80
2023/08/20 03:28:01;;;;;;;12.00;10.80;;;;;;;;;;5039532;28;20104;-80
2023/08/20 03:30:27;;;;;;;12.57;10.45;;;;;;;;;;5022665;28;20112;-79
2023/08/20 03:32:52;;;;;;;11.23;10.00;;;;;;;;;;5030918;28;20050;-80
2023/08/20 03:35:18;;;;;;;10.90;9.80;;;;;;;;;;5040767;28;20033;-80
2023/08/20 03:37:43;;;;;;;13.68;10.73;;;;;;;;;;5039438;28;20091;-80
2023/08/20 03:40:09;;;;;;;10.70;9.60;;;;;;;;;;5021922;28;20026;-80
2023/08/20 03:42:34;;;;;;;12.85;10.82;;;;;;;;;;5039520;28;20033;-79
2023/08/20 03:45:00;;;;;;;12.67;10.17;;;;;;;;;;5040022;28;20021;-80
2023/08/20 03:47:25;;;;;;;11.75;9.60;;;;;;;;;;5031947;28;20268;-80
2023/08/20 03:49:51;;;;;;;11.57;10.38;;;;;;;;;;5022499;28;20053;-80
2023/08/20 03:52:16;;;;;;;12.23;11.02;;;;;;;;;;5022512;28;20040;-80
2023/08/20 03:54:42;;;;;;;13.25;10.45;;;;;;;;;;5035097;28;20117;-80
2023/08/20 03:57:07;;;;;;;12.30;9.43;;;;;;;;;;5027521;28;20036;-80
2023/08/20 03:59:32;;;;;;;11.02;9.52;;;;;;;;;;5035390;28;20021;-80
2023/08/20 04:01:58;;;;;;;11.18;10.10;;;;;;;;;;5035236;28;20136;-80
2023/08/20 04:04:24;;;;;;;10.68;9.57;;;;;;;;;;5020177;28;20018;-80
2023/08/20 04:06:50;;;;;;;10.30;9.30;;;;;;;;;;5036969;28;20035;-79
2023/08/20 04:09:16;;;;;;;11.63;9.57;;;;;;;;;;5036767;28;20103;-80
2023/08/20 04:11:41;;;;;;;10.23;9.23;;;;;;;;;;5036700;28;20037;-79
2023/08/20 04:14:08;;;;;;;10.88;8.68;;;;;;;;;;5027403;28;20037;-80
2023/08/20 04:16:34;;;;;;;10.63;9.00;;;;;;;;;;5019622;28;20034;-80
2023/08/20 04:18:59;;;;;;;12.05;8.90;;;;;;;;;;5035373;28;20033;-80
2023/08/20 04:21:24;;;;;;;12.07;9.68;;;;;;;;;;5035690;28;20373;-80
2023/08/20 04:23:49;;;;;;;12.98;9.68;;;;;;;;;;5027584;28;20364;-79
2023/08/20 04:26:15;;;;;;;11.30;9.82;;;;;;;;;;5027467;28;20411;-80
2023/08/20 04:28:40;;;;;;;11.35;9.90;;;;;;;;;;5035472;28;20389;-80
2023/08/20 04:31:06;;;;;;;13.00;9.23;;;;;;;;;;5022269;28;20411;-80
2023/08/20 04:33:45;;;;;;;9.52;8.50;;;;;;;;;;5020094;28;20465;-80
2023/08/20 04:36:12;;;;;;;11.43;8.82;;;;;;;;;;5015183;28;20029;-80
2023/08/20 04:38:37;;;;;;;10.98;8.80;;;;;;;;;;5035388;28;20037;-80
2023/08/20 04:41:02;;;;;;;11.38;9.20;;;;;;;;;;5026817;28;20082;-80
2023/08/20 04:43:28;;;;;;;13.30;8.25;;;;;;;;;;5018459;28;20029;-79
2023/08/20 04:45:54;;;;;;;10.98;8.95;;;;;;;;;;5018301;28;20040;-80
2023/08/20 04:48:20;;;;;;;8.32;7.43;;;;;;;;;;5026962;28;20032;-80
2023/08/20 04:50:46;;;;;;;10.95;8.50;;;;;;;;;;5018980;28;20025;-79
2023/08/20 04:53:13;;;;;;;9.65;7.57;;;;;;;;;;5016103;28;20033;-80
2023/08/20 04:55:38;;;;;;;10.32;7.35;;;;;;;;;;5018327;28;20488;-80
2023/08/20 04:58:03;;;;;;;9.60;8.13;;;;;;;;;;5034791;28;20651;-80
2023/08/20 05:00:29;;;;;;;10.70;8.27;;;;;;;;;;5020437;28;20041;-80
2023/08/20 05:03:04;;;;;;;9.80;7.93;;;;;;;;;;5010024;28;20116;-80
2023/08/20 05:05:29;;;;;;;9.70;7.47;;;;;;;;;;5034430;28;20065;-80
2023/08/20 05:07:55;;;;;;;8.52;7.55;;;;;;;;;;5018064;28;20495;-80
2023/08/20 05:10:20;;;;;;;8.93;6.97;;;;;;;;;;5022595;28;20120;-79
2023/08/20 05:12:46;;;;;;;8.48;7.38;;;;;;;;;;5025806;28;20041;-80
2023/08/20 05:15:11;;;;;;;9.95;7.47;;;;;;;;;;5026960;28;20034;-80
2023/08/20 05:17:37;;;;;;;9.20;6.38;;;;;;;;;;5018355;28;20492;-80
2023/08/20 05:20:03;;;;;;;10.65;6.90;;;;;;;;;;5033589;28;20454;-80
2023/08/20 05:22:28;;;;;;;9.30;6.95;;;;;;;;;;5026123;28;20091;-79
2023/08/20 05:24:54;;;;;;;9.88;6.82;;;;;;;;;;5034424;28;20033;-80
2023/08/20 05:27:19;;;;;;;9.77;6.70;;;;;;;;;;5017801;28;20041;-79
2023/08/20 05:29:47;;;;;;;8.95;6.40;;;;;;;;;;5013758;28;20280;-80
2023/08/20 05:32:16;;;;;;;8.93;7.13;;;;;;;;;;5019773;28;20087;-80
2023/08/20 05:34:41;;;;;;;7.93;6.30;;;;;;;;;;5018386;28;20033;-80
2023/08/20 05:37:06;;;;;;;8.38;6.50;;;;;;;;;;5026482;28;20022;-80
2023/08/20 05:39:36;;;;;;;9.70;6.73;;;;;;;;;;5025260;28;20021;-80
2023/08/20 05:42:01;;;;;;;12.73;7.65;;;;;;;;;;5020223;28;20307;-80
2023/08/20 05:44:27;;;;;;;11.32;6.85;;;;;;;;;;5034323;28;20018;-80
2023/08/20 05:46:52;;;;;;;8.95;7.13;;;;;;;;;;5034406;28;20110;-80
2023/08/20 05:49:20;;;;;;;9.02;7.10;;;;;;;;;;5033344;28;20060;-80
2023/08/20 05:51:46;;;;;;;11.25;7.30;;;;;;;;;;5021046;28;20040;-80
2023/08/20 05:54:11;;;;;;;11.23;7.18;;;;;;;;;;5034953;28;20041;-80
2023/08/20 05:56:37;;;;;;;10.52;7.05;;;;;;;;;;5035252;28;20068;-80
2023/08/20 05:59:02;;;;;;;9.45;7.93;;;;;;;;;;4999891;28;20033;-79
2023/08/20 06:01:28;;;;;;;10.50;7.55;;;;;;;;;;5024356;28;20029;-80
2023/08/20 06:03:53;;;;;;;10.55;7.93;;;;;;;;;;5034550;28;20030;-79
2023/08/20 06:06:18;;;;;;;8.33;7.07;;;;;;;;;;5017524;28;20037;-80
2023/08/20 06:08:44;;;;;;;11.50;8.13;;;;;;;;;;5034663;28;20280;-80
2023/08/20 06:11:09;;;;;;;9.63;7.30;;;;;;;;;;5034963;28;20287;-80
2023/08/20 06:13:34;;;;;;;8.40;7.43;;;;;;;;;;5035075;28;20282;-80
2023/08/20 06:15:59;;;;;;;9.73;7.50;;;;;;;;;;5033676;28;20295;-80
2023/08/20 06:18:24;;;;;;;9.77;8.30;;;;;;;;;;5029399;28;20272;-80
2023/08/20 06:20:50;;;;;;;11.63;8.07;;;;;;;;;;5034315;28;20280;-80
2023/08/20 06:23:15;;;;;;;10.47;8.30;;;;;;;;;;5025188;28;20691;-80
2023/08/20 06:25:40;;;;;;;9.48;7.32;;;;;;;;;;5034527;28;20272;-80
2023/08/20 06:28:05;;;;;;;9.88;7.63;;;;;;;;;;5034713;28;20064;-80
2023/08/20 06:30:31;;;;;;;10.88;7.18;;;;;;;;;;5034076;28;20045;-80
2023/08/20 06:32:56;;;;;;;11.80;8.47;;;;;;;;;;5034147;28;20156;-80
2023/08/20 06:35:21;;;;;;;11.70;8.60;;;;;;;;;;5016391;28;20395;-80
2023/08/20 06:37:46;;;;;;;11.43;7.97;;;;;;;;;;5025816;28;20290;-79
2023/08/20 06:40:13;;;;;;;10.60;8.10;;;;;;;;;;5018281;28;20286;-80
2023/08/20 06:42:38;;;;;;;10.40;8.23;;;;;;;;;;5024611;28;20288;-79
2023/08/20 06:45:04;;;;;;;10.05;6.85;;;;;;;;;;5034876;28;20092;-80
2023/08/20 06:47:29;;;;;;;10.30;7.70;;;;;;;;;;5034490;28;20061;-80
2023/08/20 06:49:54;;;;;;;8.53;7.67;;;;;;;;;;5032508;28;20064;-79
2023/08/20 06:52:19;;;;;;;12.10;7.60;;;;;;;;;;5034176;28;20311;-80
2023/08/20 06:54:45;;;;;;;9.87;8.13;;;;;;;;;;5034485;28;20280;-79
2023/08/20 06:57:10;;;;;;;9.95;8.30;;;;;;;;;;5033599;28;20276;-80
2023/08/20 06:59:35;;;;;;;11.45;8.82;;;;;;;;;;5023873;28;20026;-79
2023/08/20 07:02:00;;;;;;;9.93;7.97;;;;;;;;;;5033572;28;20040;-80
2023/08/20 07:04:26;;;;;;;10.20;8.37;;;;;;;;;;5031143;28;20300;-80
2023/08/20 07:06:51;;;;;;;10.32;8.63;;;;;;;;;;5016755;28;20362;-79
2023/08/20 07:09:16;;;;;;;11.88;8.23;;;;;;;;;;5033670;28;20037;-80
2023/08/20 07:11:41;;;;;;;9.30;8.38;;;;;;;;;;5034060;28;20029;-80
2023/08/20 07:14:07;;;;;;;12.30;9.03;;;;;;;;;;5034393;28;20480;-79
2023/08/20 07:16:32;;;;;;;13.67;9.37;;;;;;;;;;5033884;28;20319;-80
2023/08/20 07:18:57;;;;;;;9.57;7.57;;;;;;;;;;5033556;28;20367;-80
2023/08/20 07:21:22;;;;;;;9.82;8.75;;;;;;;;;;5034240;28;20486;-80
2023/08/20 07:23:48;;;;;;;9.83;7.40;;;;;;;;;;5034004;28;20021;-80
2023/08/20 07:26:13;;;;;;;10.63;8.55;;;;;;;;;;5033839;28;20776;-78
2023/08/20 07:28:56;;;;;;;11.20;9.45;;;;;;;;;;5035046;28;20124;-80
2023/08/20 07:31:22;;;;;;;9.52;8.57;;;;;;;;;;5037102;28;20070;-79
2023/08/20 07:33:48;;;;;;;12.25;9.55;;;;;;;;;;5037740;28;20029;-78
2023/08/20 07:36:13;;;;;;;14.45;9.73;;;;;;;;;;5037322;28;20037;-80
2023/08/20 07:38:41;;;;;;;11.23;9.07;;;;;;;;;;5020212;28;20030;-80
2023/08/20 07:41:06;;;;;;;9.77;8.77;;;;;;;;;;5033555;28;20419;-79
2023/08/20 07:43:32;;;;;;;9.98;8.88;;;;;;;;;;5035135;28;20040;-77
2023/08/20 07:45:57;;;;;;;12.30;8.88;;;;;;;;;;5037523;28;20060;-79
2023/08/20 07:48:22;;;;;;;12.18;10.45;;;;;;;;;;5037400;28;20029;-79
2023/08/20 07:50:47;;;;;;;12.33;9.20;;;;;;;;;;5037073;28;20041;-78
2023/08/20 07:53:12;;;;;;;11.30;9.80;;;;;;;;;;5037442;28;20284;-80
2023/08/20 07:55:38;;;;;;;12.13;9.97;;;;;;;;;;5037555;28;20346;-79
2023/08/20 07:58:03;;;;;;;11.02;9.55;;;;;;;;;;5037496;28;20365;-80
2023/08/20 08:00:28;;;;;;;14.68;10.27;;;;;;;;;;5036175;28;20033;-80
2023/08/20 08:02:53;;;;;;;10.67;9.20;;;;;;;;;;5036804;28;20029;-79
2023/08/20 08:05:18;;;;;;;10.30;9.20;;;;;;;;;;5019512;28;20952;-80
2023/08/20 08:07:44;;;;;;;12.93;9.47;;;;;;;;;;5035922;28;20283;-79
2023/08/20 08:10:09;;;;;;;11.07;9.98;;;;;;;;;;5019264;28;20044;-80
2023/08/20 08:12:34;;;;;;;9.57;8.13;;;;;;;;;;5035278;28;20037;-80
2023/08/20 08:14:59;;;;;;;12.70;10.53;;;;;;;;;;5019249;28;20124;-80
2023/08/20 08:17:25;;;;;;;12.97;9.97;;;;;;;;;;5036606;28;20282;-79
2023/08/20 08:19:51;;;;;;;13.37;11.33;;;;;;;;;;5026505;28;20268;-78
2023/08/20 08:22:16;;;;;;;12.15;10.85;;;;;;;;;;5036822;28;20264;-79
2023/08/20 08:24:42;;;;;;;13.52;11.52;;;;;;;;;;5035977;28;20083;-79
2023/08/20 08:27:07;;;;;;;11.77;10.38;;;;;;;;;;5035788;28;20034;-79
2023/08/20 08:29:32;;;;;;;11.88;10.68;;;;;;;;;;5035974;28;20100;-79
2023/08/20 08:31:58;;;;;;;11.82;10.30;;;;;;;;;;5018712;28;20049;-79
2023/08/20 08:34:23;;;;;;;12.45;11.02;;;;;;;;;;5037000;28;20032;-79
2023/08/20 08:36:48;;;;;;;13.40;10.07;;;;;;;;;;5036818;28;20614;-78
2023/08/20 08:39:14;;;;;;;11.23;9.93;;;;;;;;;;5035540;28;20282;-79
2023/08/20 08:41:41;;;;;;;11.52;10.30;;;;;;;;;;5017802;28;20280;-79
2023/08/20 08:44:08;;;;;;;14.25;10.43;;;;;;;;;;5035963;28;20037;-78
2023/08/20 08:46:34;;;;;;;14.80;9.77;;;;;;;;;;5020792;28;20108;-79
2023/08/20 08:49:00;;;;;;;12.48;10.27;;;;;;;;;;5036036;28;20131;-79
2023/08/20 08:51:26;;;;;;;13.00;11.38;;;;;;;;;;5036219;28;20492;-79
2023/08/20 08:53:51;;;;;;;10.88;9.77;;;;;;;;;;5021670;28;20029;-80
2023/08/20 08:56:16;;;;;;;10.70;9.60;;;;;;;;;;5025697;28;20029;-77
2023/08/20 08:58:42;;;;;;;12.97;10.40;;;;;;;;;;5035502;28;20271;-78
2023/08/20 09:01:07;;;;;;;10.60;9.18;;;;;;;;;;5036094;28;20754;-79
2023/08/20 09:03:32;;;;;;;11.60;9.87;;;;;;;;;;5026309;28;20044;-80
2023/08/20 09:06:03;;;;;;;9.93;8.95;;;;;;;;;;5026790;28;20280;-79
2023/08/20 09:08:29;;;;;;;11.32;9.10;;;;;;;;;;5036005;28;20033;-79
2023/08/20 09:10:55;;;;;;;13.57;10.35;;;;;;;;;;5031309;28;20500;-80
2023/08/20 09:13:24;;;;;;;9.98;8.18;;;;;;;;;;5025660;28;20037;-80
2023/08/20 09:15:53;;;;;;;13.95;8.82;;;;;;;;;;5035879;28;20038;-79
2023/08/20 09:18:18;;;;;;;13.85;9.05;;;;;;;;;;5036008;28;20057;-80
2023/08/20 09:20:44;;;;;;;11.55;9.90;;;;;;;;;;5033486;28;20033;-79
2023/08/20 09:23:13;;;;;;;10.32;8.55;;;;;;;;;;5025687;28;20454;-80
2023/08/20 09:25:38;;;;;;;10.25;8.65;;;;;;;;;;5035402;28;20068;-80
2023/08/20 09:28:04;;;;;;;9.52;8.40;;;;;;;;;;5017584;28;20052;-79
2023/08/20 09:30:29;;;;;;;9.57;8.57;;;;;;;;;;5034726;28;20033;-79
2023/08/20 09:33:11;;;;;;;10.57;9.50;;;;;;;;;;5035125;28;20037;-80
2023/08/20 09:35:36;;;;;;;9.63;8.63;;;;;;;;;;5032491;28;20300;-80
2023/08/20 09:38:03;;;;;;;10.10;8.10;;;;;;;;;;5035611;28;20454;-78
2023/08/20 09:40:28;;;;;;;10.43;7.85;;;;;;;;;;5025443;28;20033;-80
2023/08/20 09:42:54;;;;;;;9.50;8.30;;;;;;;;;;5025224;28;20124;-78
2023/08/20 09:45:20;;;;;;;11.85;8.55;;;;;;;;;;5035596;28;20049;-80
2023/08/20 09:47:48;;;;;;;10.18;8.20;;;;;;;;;;5035332;28;20475;-80
2023/08/20 09:50:13;;;;;;;9.68;7.85;;;;;;;;;;5034641;28;20064;-80
2023/08/20 09:52:40;;;;;;;9.38;7.60;;;;;;;;;;5034018;28;20026;-80
2023/08/20 09:55:08;;;;;;;8.70;6.85;;;;;;;;;;5035138;28;20116;-80
2023/08/20 09:57:35;;;;;;;9.77;7.63;;;;;;;;;;5022104;28;20033;-80
2023/08/20 10:00:01;;;;;;;9.13;7.45;;;;;;;;;;5033951;28;20097;-80
2023/08/20 10:02:26;;;;;;;13.23;8.77;;;;;;;;;;5033629;28;20463;-80
2023/08/20 10:04:52;;;;;;;8.85;7.32;;;;;;;;;;5025303;28;20037;-80
2023/08/20 10:07:17;;;;;;;10.43;7.30;;;;;;;;;;5033828;28;20116;-80
2023/08/20 10:09:45;;;;;;;8.88;7.82;;;;;;;;;;5034304;28;20042;-80
2023/08/20 10:12:11;;;;;;;8.40;7.50;;;;;;;;;;5024612;28;20547;-79
2023/08/20 10:14:36;;;;;;;8.45;6.95;;;;;;;;;;5025315;28;20029;-79
2023/08/20 10:17:06;;;;;;;7.43;5.97;;;;;;;;;;5034364;28;20045;-80
2023/08/20 10:19:31;;;;;;;8.07;5.78;;;;;;;;;;5028849;28;20339;-80
2023/08/20 10:21:56;;;;;;;7.78;6.57;;;;;;;;;;5034884;28;20049;-80
2023/08/20 10:24:23;;;;;;;7.13;6.43;;;;;;;;;;5035147;28;20044;-80
2023/08/20 10:26:49;;;;;;;7.25;6.50;;;;;;;;;;5025134;28;20280;-79
2023/08/20 10:29:33;;;;;;;8.52;6.90;;;;;;;;;;5024674;28;20044;-80
2023/08/20 10:31:58;;;;;;;7.13;5.90;;;;;;;;;;5033550;28;20035;-80
2023/08/20 10:34:32;;;;;;;7.65;6.18;;;;;;;;;;5028346;28;20033;-80
2023/08/20 10:36:57;;;;;;;8.07;5.80;;;;;;;;;;5013283;28;20041;-80
2023/08/20 10:39:24;;;;;;;6.90;5.63;;;;;;;;;;5032830;28;20029;-79
2023/08/20 10:42:07;;;;;;;6.28;5.53;;;;;;;;;;5024967;28;20037;-80
2023/08/20 10:44:53;;;;;;;6.75;6.05;;;;;;;;;;5016568;28;20536;-78
2023/08/20 10:47:18;;;;;;;7.72;5.35;;;;;;;;;;5006065;28;20071;-80
2023/08/20 10:49:44;;;;;;;6.45;5.18;;;;;;;;;;5033437;28;20112;-80
2023/08/20 10:52:09;;;;;;;7.68;6.65;;;;;;;;;;5024435;28;20037;-80
2023/08/20 10:54:34;;;;;;;8.93;6.27;;;;;;;;;;5016625;28;20037;-80
2023/08/20 10:56:59;;;;;;;7.73;6.93;;;;;;;;;;5033763;28;20292;-79
2023/08/20 10:59:29;;;;;;;7.45;6.70;;;;;;;;;;5033689;28;20276;-80
2023/08/20 11:01:55;;;;;;;7.80;6.50;;;;;;;;;;5024537;28;20025;-80
2023/08/20 11:04:22;;;;;;;7.20;6.28;;;;;;;;;;5036443;28;20491;-80
2023/08/20 11:06:54;;;;;;;8.20;6.60;;;;;;;;;;5034304;28;20064;-80
2023/08/20 11:09:21;;;;;;;9.18;7.10;;;;;;;;;;5019930;28;20052;-80
2023/08/20 11:11:46;;;;;;;10.02;6.25;;;;;;;;;;5037403;28;20112;-80
2023/08/20 11:14:15;;;;;;;9.68;7.00;;;;;;;;;;5037801;28;20065;-80
2023/08/20 11:16:41;;;;;;;6.97;6.15;;;;;;;;;;5038155;28;20423;-80
2023/08/20 11:19:09;;;;;;;8.60;6.20;;;;;;;;;;5037411;28;20029;-80
2023/08/20 11:21:35;;;;;;;7.85;6.90;;;;;;;;;;5020098;28;20068;-80
2023/08/20 11:24:01;;;;;;;7.53;6.47;;;;;;;;;;5037820;28;20021;-80
2023/08/20 11:26:26;;;;;;;7.35;6.30;;;;;;;;;;5030716;28;20421;-80
2023/08/20 11:28:51;;;;;;;8.70;6.63;;;;;;;;;;5037484;28;20121;-80
2023/08/20 11:31:16;;;;;;;7.77;6.30;;;;;;;;;;5036004;28;20407;-80
2023/08/20 11:33:42;;;;;;;7.18;6.40;;;;;;;;;;5027776;28;20128;-80
2023/08/20 11:36:07;;;;;;;7.40;6.30;;;;;;;;;;5038065;28;20108;-80
2023/08/20 11:38:32;;;;;;;7.93;7.00;;;;;;;;;;5038125;28;20080;-80
2023/08/20 11:40:59;;;;;;;7.55;5.68;;;;;;;;;;5027817;28;20495;-79
2023/08/20 11:43:24;;;;;;;7.05;6.35;;;;;;;;;;5037169;28;20084;-80
2023/08/20 11:45:50;;;;;;;6.97;6.28;;;;;;;;;;5037664;28;20444;-78
2023/08/20 11:48:16;;;;;;;7.28;6.40;;;;;;;;;;5025339;28;20033;-80
2023/08/20 11:50:41;;;;;;;7.28;6.10;;;;;;;;;;5028106;28;20041;-80
2023/08/20 11:53:08;;;;;;;8.63;5.55;;;;;;;;;;5027371;28;20041;-78
2023/08/20 11:55:33;;;;;;;8.35;6.40;;;;;;;;;;5036841;28;20502;-80
2023/08/20 11:57:58;;;;;;;6.40;5.60;;;;;;;;;;5037076;28;20022;-80
2023/08/20 12:00:27;;;;;;;7.23;6.33;;;;;;;;;;5036609;28;20034;-80
2023/08/20 12:02:54;;;;;;;8.70;5.72;;;;;;;;;;5027699;28;20515;-80
2023/08/20 12:05:20;;;;;;;6.63;5.78;;;;;;;;;;5037178;28;20066;-80
2023/08/20 12:07:54;;;;;;;9.48;5.47;;;;;;;;;;5037215;28;20037;-80
2023/08/20 12:10:21;;;;;;;5.93;5.32;;;;;;;;;;5036562;28;20117;-80
2023/08/20 12:12:47;;;;;;;7.38;5.55;;;;;;;;;;5036566;28;20030;-79
2023/08/20 12:15:13;;;;;;;8.52;5.93;;;;;;;;;;5035932;28;20037;-80
2023/08/20 12:17:38;;;;;;;8.55;5.78;;;;;;;;;;5036902;28;20118;-80
2023/08/20 12:20:12;;;;;;;7.30;5.47;;;;;;;;;;5036306;28;20032;-80
2023/08/20 12:22:37;;;;;;;5.75;4.65;;;;;;;;;;5026911;28;20029;-80
2023/08/20 12:25:03;;;;;;;5.97;5.03;;;;;;;;;;5035562;28;20052;-80
2023/08/20 12:27:28;;;;;;;6.30;5.30;;;;;;;;;;5037074;28;20264;-80
2023/08/20 12:29:54;;;;;;;5.30;4.35;;;;;;;;;;5025226;28;20404;-80
2023/08/20 12:32:19;;;;;;;5.57;4.72;;;;;;;;;;5036296;28;20033;-80
2023/08/20 12:34:44;;;;;;;7.20;4.23;;;;;;;;;;5037009;28;20029;-80
2023/08/20 12:37:09;;;;;;;5.17;4.40;;;;;;;;;;5027617;28;20041;-80
2023/08/20 12:39:34;;;;;;;5.93;4.13;;;;;;;;;;5035197;28;20104;-79
2023/08/20 12:42:00;;;;;;;6.23;3.77;;;;;;;;;;5035998;28;20021;-80
2023/08/20 12:44:25;;;;;;;6.70;4.37;;;;;;;;;;5035043;28;20110;-79
2023/08/20 12:46:51;;;;;;;6.53;4.13;;;;;;;;;;5031438;28;20480;-80
2023/08/20 12:49:16;;;;;;;6.20;3.80;;;;;;;;;;5026801;28;20280;-80
2023/08/20 12:51:42;;;;;;;5.75;4.43;;;;;;;;;;5036142;28;20128;-80
2023/08/20 12:54:07;;;;;;;5.87;3.93;;;;;;;;;;5027470;28;20104;-79
2023/08/20 12:56:32;;;;;;;5.72;3.80;;;;;;;;;;5036405;28;20299;-80
2023/08/20 12:58:58;;;;;;;4.53;3.70;;;;;;;;;;5035576;28;20052;-80
2023/08/20 13:01:23;;;;;;;4.93;3.47;;;;;;;;;;5036116;28;20742;-80
2023/08/20 13:03:48;;;;;;;4.93;3.03;;;;;;;;;;5036378;28;20345;-81
2023/08/20 13:06:14;;;;;;;5.57;3.72;;;;;;;;;;5036248;28;20080;-80
2023/08/20 13:08:39;;;;;;;4.72;3.30;;;;;;;;;;5035040;28;20562;-81
2023/08/20 13:11:06;;;;;;;4.72;3.22;;;;;;;;;;5035636;28;20037;-80
2023/08/20 13:13:32;;;;;;;4.55;3.55;;;;;;;;;;5036533;28;20132;-80
2023/08/20 13:15:57;;;;;;;5.97;3.08;;;;;;;;;;5035849;28;20547;-79
2023/08/20 13:18:26;;;;;;;5.07;3.40;;;;;;;;;;5036260;28;20037;-80
2023/08/20 13:20:52;;;;;;;3.72;3.10;;;;;;;;;;5025789;28;20033;-80
2023/08/20 13:23:17;;;;;;;6.88;3.00;;;;;;;;;;5018562;28;20187;-81
2023/08/20 13:25:43;;;;;;;6.07;3.67;;;;;;;;;;5035752;28;20726;-80
2023/08/20 13:28:08;;;;;;;4.72;3.20;;;;;;;;;;5036274;28;20279;-80
2023/08/20 13:30:34;;;;;;;4.88;3.60;;;;;;;;;;5034678;28;20041;-79
2023/08/20 13:32:59;;;;;;;4.63;3.37;;;;;;;;;;5025920;28;20053;-80
2023/08/20 13:35:24;;;;;;;5.17;3.63;;;;;;;;;;5035736;28;20116;-80
2023/08/20 13:37:49;;;;;;;5.60;3.47;;;;;;;;;;5034487;28;20037;-80
2023/08/20 13:40:14;;;;;;;6.47;3.67;;;;;;;;;;5034128;28;20088;-80
2023/08/20 13:42:40;;;;;;;4.63;3.10;;;;;;;;;;5025731;28;20029;-80
2023/08/20 13:45:05;;;;;;;5.40;3.33;;;;;;;;;;5034481;28;20670;-80
2023/08/20 13:47:30;;;;;;;4.32;3.03;;;;;;;;;;5017257;28;20030;-80
2023/08/20 13:49:56;;;;;;;4.50;3.20;;;;;;;;;;5035281;28;20033;-80
2023/08/20 13:52:21;;;;;;;3.95;2.85;;;;;;;;;;5035199;28;20026;-81
2023/08/20 13:54:47;;;;;;;3.47;2.87;;;;;;;;;;5031555;28;20029;-80
2023/08/20 13:57:12;;;;;;;4.97;2.97;;;;;;;;;;5017873;28;20056;-80
2023/08/20 13:59:37;;;;;;;4.93;3.27;;;;;;;;;;5034362;28;20036;-80
2023/08/20 14:02:02;;;;;;;4.20;2.97;;;;;;;;;;5026111;28;20276;-79
2023/08/20 14:04:28;;;;;;;4.40;3.07;;;;;;;;;;5035422;28;20296;-80
2023/08/20 14:06:53;;;;;;;5.85;2.90;;;;;;;;;;5035188;28;20677;-81
2023/08/20 14:09:18;;;;;;;4.80;2.90;;;;;;;;;;5034726;28;20052;-81
2023/08/20 14:11:44;;;;;;;4.15;2.80;;;;;;;;;;5033796;28;20040;-81
2023/08/20 14:14:09;;;;;;;4.65;3.10;;;;;;;;;;5035264;28;20045;-81
2023/08/20 14:16:34;;;;;;;3.83;2.80;;;;;;;;;;5034098;28;20034;-81
2023/08/20 14:18:59;;;;;;;5.38;3.00;;;;;;;;;;5016939;28;20087;-81
2023/08/20 14:21:25;;;;;;;3.90;2.70;;;;;;;;;;5035218;28;20524;-81
2023/08/20 14:23:50;;;;;;;7.10;2.97;;;;;;;;;;5025338;28;20287;-81
2023/08/20 14:26:15;;;;;;;3.70;3.00;;;;;;;;;;5034704;28;20035;-81
2023/08/20 14:28:43;;;;;;;6.55;3.17;;;;;;;;;;5034524;28;20108;-80